Time;durP1;ratioP1;P1;durP2;ratioP2;P2;SDS_P1;SDS_P2;PMS_P1;PMS_P2;Temp;Humidity;BMP_temperature;BMP_pressure;BME280_temperature;BME280_humidity;BME280_pressure;Samples;Min_cycle;Max_cycle;Signal;HPM_P1;HPM_P2
2022/01/05 00:02:03;;;;;;;15.02;1.33;;;5.20;99.90;;;;;;6216153;23;20044;-90
2022/01/05 00:04:36;;;;;;;14.95;1.42;;;5.20;99.90;;;;;;6216224;23;20028;-89
2022/01/05 00:07:10;;;;;;;8.80;1.10;;;5.20;99.90;;;;;;6189562;23;20028;-89
2022/01/05 00:09:37;;;;;;;13.90;1.35;;;5.20;99.90;;;;;;6216159;23;20031;-90
2022/01/05 00:12:05;;;;;;;10.43;1.65;;;5.20;99.90;;;;;;6165291;23;20371;-89
2022/01/05 00:14:32;;;;;;;12.85;1.38;;;5.20;99.90;;;;;;6189886;23;20103;-90
2022/01/05 00:16:59;;;;;;;6.78;1.33;;;5.20;99.90;;;;;;6163700;23;20071;-90
2022/01/05 00:19:28;;;;;;;8.00;1.25;;;5.20;99.90;;;;;;6165092;23;20012;-90
2022/01/05 00:22:01;;;;;;;16.80;2.20;;;5.20;99.90;;;;;;6190869;23;20313;-90
2022/01/05 00:24:32;;;;;;;16.98;1.98;;;5.20;99.90;;;;;;6162016;23;20025;-90
2022/01/05 00:26:59;;;;;;;11.43;1.48;;;5.20;99.90;;;;;;6191440;23;20021;-90
2022/01/05 00:29:27;;;;;;;6.88;1.10;;;5.20;99.90;;;;;;6167357;23;20462;-90
2022/01/05 00:31:57;;;;;;;7.20;1.38;;;5.20;99.90;;;;;;6191167;23;20020;-90
2022/01/05 00:34:26;;;;;;;14.35;1.20;;;5.20;99.90;;;;;;6191681;23;20023;-90
2022/01/05 00:36:53;;;;;;;14.45;2.70;;;5.20;99.90;;;;;;6167086;23;20494;-90
2022/01/05 00:39:23;;;;;;;13.38;1.80;;;5.20;99.90;;;;;;6162286;23;20044;-90
2022/01/05 00:41:53;;;;;;;12.00;3.08;;;5.20;99.90;;;;;;6191221;23;20017;-90
2022/01/05 00:44:24;;;;;;;10.70;1.73;;;5.20;99.90;;;;;;6192090;23;20021;-90
2022/01/05 00:46:51;;;;;;;4.95;1.50;;;5.20;99.90;;;;;;6218312;23;20021;-90
2022/01/05 00:49:20;;;;;;;7.18;1.67;;;5.20;99.90;;;;;;6162024;23;20021;-90
2022/01/05 00:51:50;;;;;;;9.88;2.08;;;5.20;99.90;;;;;;6191617;23;20448;-90
2022/01/05 00:54:17;;;;;;;10.80;1.50;;;5.20;99.90;;;;;;6192190;23;20059;-90
2022/01/05 00:56:46;;;;;;;3.03;1.10;;;5.20;99.90;;;;;;6218560;23;20017;-90
2022/01/05 00:59:13;;;;;;;15.30;2.22;;;5.20;99.90;;;;;;6161963;23;20021;-90
2022/01/05 01:01:40;;;;;;;15.07;2.17;;;5.20;99.90;;;;;;6192041;23;20025;-90
2022/01/05 01:04:08;;;;;;;9.00;1.77;;;5.20;99.90;;;;;;6218331;23;20136;-90
2022/01/05 01:06:35;;;;;;;11.80;2.10;;;5.20;99.90;;;;;;6192350;23;20024;-89
2022/01/05 01:09:07;;;;;;;13.10;1.73;;;5.20;99.90;;;;;;6192266;23;20111;-90
2022/01/05 01:11:35;;;;;;;6.97;2.05;;;5.20;99.90;;;;;;6191318;23;20326;-90
2022/01/05 01:14:03;;;;;;;9.13;1.45;;;5.20;99.90;;;;;;6191279;23;20039;-90
2022/01/05 01:16:32;;;;;;;13.13;1.35;;;5.20;99.90;;;;;;6218069;23;20321;-89
2022/01/05 01:18:59;;;;;;;9.10;2.17;;;5.20;99.90;;;;;;6190917;23;20456;-90
2022/01/05 01:21:26;;;;;;;15.27;2.80;;;5.20;99.90;;;;;;6165225;23;20021;-89
2022/01/05 01:23:56;;;;;;;5.90;1.25;;;5.20;99.90;;;;;;6166789;23;20334;-90
2022/01/05 01:26:30;;;;;;;11.50;1.67;;;5.10;99.90;;;;;;6186534;23;20021;-90
2022/01/05 01:29:01;;;;;;;9.05;1.65;;;5.20;99.90;;;;;;6191540;23;20027;-91
2022/01/05 01:31:29;;;;;;;5.97;1.05;;;5.20;99.90;;;;;;6192218;23;20016;-90
2022/01/05 01:33:58;;;;;;;11.02;2.30;;;5.20;99.90;;;;;;6191191;23;20067;-90
2022/01/05 01:36:26;;;;;;;12.73;2.03;;;5.20;99.90;;;;;;6218170;23;20040;-91
2022/01/05 01:38:56;;;;;;;8.88;1.33;;;5.20;99.90;;;;;;6192331;23;20087;-90
2022/01/05 01:41:23;;;;;;;13.85;1.33;;;5.20;99.90;;;;;;6218015;23;20090;-90
2022/01/05 01:43:50;;;;;;;9.70;1.67;;;5.20;99.90;;;;;;6191232;23;20057;-89
2022/01/05 01:46:17;;;;;;;11.52;0.80;;;5.20;99.90;;;;;;6191484;23;20467;-89
2022/01/05 01:48:46;;;;;;;20.73;1.15;;;5.20;99.90;;;;;;6190658;23;20024;-90
2022/01/05 01:51:18;;;;;;;10.93;1.30;;;5.20;99.90;;;;;;6161831;23;20017;-89
2022/01/05 01:53:45;;;;;;;5.78;1.05;;;5.20;99.90;;;;;;6190949;23;20020;-89
2022/01/05 01:56:14;;;;;;;8.98;1.02;;;5.20;99.90;;;;;;6191269;23;20065;-89
2022/01/05 01:58:45;;;;;;;7.40;1.58;;;5.20;99.90;;;;;;6190967;23;20040;-91
2022/01/05 02:01:14;;;;;;;16.92;3.05;;;5.20;99.90;;;;;;6191052;23;20025;-89
2022/01/05 02:03:42;;;;;;;4.85;1.38;;;5.20;99.90;;;;;;6191046;23;20044;-90
2022/01/05 02:06:15;;;;;;;11.15;1.42;;;5.30;99.90;;;;;;6192644;23;20024;-90
2022/01/05 02:08:46;;;;;;;10.05;0.88;;;5.30;99.90;;;;;;6191950;23;20075;-90
2022/01/05 02:11:13;;;;;;;6.53;0.77;;;5.30;99.90;;;;;;6191392;23;20027;-90
2022/01/05 02:13:41;;;;;;;5.15;0.98;;;5.30;99.90;;;;;;6165959;23;20020;-90
2022/01/05 02:16:08;;;;;;;7.13;1.60;;;5.30;99.90;;;;;;6190490;23;20535;-90
2022/01/05 02:21:07;;;;;;;8.27;2.20;;;5.30;99.90;;;;;;6191012;23;20436;-90
2022/01/05 02:23:37;;;;;;;12.15;2.00;;;5.30;99.90;;;;;;6190680;23;20075;-90
2022/01/05 02:26:06;;;;;;;12.70;1.50;;;5.30;99.90;;;;;;6216118;23;20341;-91
2022/01/05 02:28:36;;;;;;;9.65;1.00;;;5.30;99.90;;;;;;6190535;23;20017;-90
2022/01/05 02:31:06;;;;;;;6.68;1.40;;;5.30;99.90;;;;;;6217084;23;20063;-90
2022/01/05 02:33:33;;;;;;;6.43;1.38;;;5.30;99.90;;;;;;6165420;23;20023;-89
2022/01/05 02:36:01;;;;;;;6.30;2.35;;;5.30;99.90;;;;;;6190945;23;20018;-90
2022/01/05 02:38:29;;;;;;;7.18;1.30;;;5.30;99.90;;;;;;6216728;23;20381;-89
2022/01/05 02:40:59;;;;;;;8.63;2.00;;;5.30;99.90;;;;;;6190834;23;20017;-90
2022/01/05 02:43:27;;;;;;;14.10;2.95;;;5.30;99.90;;;;;;6217487;23;20017;-90
2022/01/05 02:45:54;;;;;;;7.63;1.92;;;5.30;99.90;;;;;;6190666;23;20059;-90
2022/01/05 02:48:23;;;;;;;16.02;2.20;;;5.30;99.90;;;;;;6190583;23;20051;-91
2022/01/05 02:50:57;;;;;;;19.02;2.83;;;5.30;99.90;;;;;;6191094;23;20016;-90
2022/01/05 02:53:27;;;;;;;12.70;1.58;;;5.30;99.90;;;;;;6190129;23;20013;-90
2022/01/05 02:55:56;;;;;;;9.98;1.88;;;5.30;99.90;;;;;;6190261;23;20017;-90
2022/01/05 02:58:25;;;;;;;15.25;1.23;;;5.30;99.90;;;;;;6191176;23;20013;-90
2022/01/05 03:00:55;;;;;;;6.85;1.30;;;5.30;99.90;;;;;;6190676;23;20028;-89
2022/01/05 03:03:22;;;;;;;10.90;1.70;;;5.30;99.90;;;;;;6190069;23;20055;-89
2022/01/05 03:05:51;;;;;;;5.95;1.67;;;5.30;99.90;;;;;;6190435;23;20063;-90
2022/01/05 03:08:20;;;;;;;3.30;1.23;;;5.30;99.90;;;;;;6217273;23;20009;-90
2022/01/05 03:10:50;;;;;;;8.93;1.13;;;5.30;99.90;;;;;;6191219;23;20017;-90
2022/01/05 03:13:23;;;;;;;8.85;1.83;;;5.30;99.90;;;;;;6166206;23;20025;-90
2022/01/05 03:15:55;;;;;;;7.43;1.58;;;5.30;99.90;;;;;;6217314;23;20023;-90
2022/01/05 03:18:27;;;;;;;11.82;2.97;;;5.30;99.90;;;;;;6191064;23;20017;-91
2022/01/05 03:20:54;;;;;;;7.35;2.13;;;5.30;99.90;;;;;;6216579;23;20022;-90
2022/01/05 03:23:21;;;;;;;9.23;1.80;;;5.30;99.90;;;;;;6185137;23;20012;-89
2022/01/05 03:25:51;;;;;;;10.15;2.00;;;5.30;99.90;;;;;;6166236;23;20045;-90
2022/01/05 03:28:21;;;;;;;15.32;1.65;;;5.30;99.90;;;;;;6184973;23;20021;-90
2022/01/05 03:30:51;;;;;;;14.60;1.77;;;5.30;99.90;;;;;;6191780;23;20020;-90
2022/01/05 03:33:21;;;;;;;11.00;2.75;;;5.30;99.90;;;;;;6216680;23;20044;-90
2022/01/05 03:35:51;;;;;;;14.07;1.77;;;5.30;99.90;;;;;;6189938;23;20020;-90
2022/01/05 03:38:18;;;;;;;6.25;1.17;;;5.30;99.90;;;;;;6190320;23;20013;-89
2022/01/05 03:40:47;;;;;;;5.65;0.73;;;5.30;99.90;;;;;;6216981;23;20013;-90
2022/01/05 03:43:14;;;;;;;13.98;1.35;;;5.30;99.90;;;;;;6190742;23;20013;-91
2022/01/05 03:45:47;;;;;;;12.15;1.77;;;5.30;99.90;;;;;;6191253;23;20016;-90
2022/01/05 03:48:23;;;;;;;7.38;1.27;;;5.40;99.90;;;;;;6215763;23;20078;-90
2022/01/05 03:50:53;;;;;;;8.60;0.98;;;5.40;99.90;;;;;;6165927;23;20020;-90
2022/01/05 03:53:22;;;;;;;16.20;1.65;;;5.40;99.90;;;;;;6166007;23;20016;-89
2022/01/05 03:55:55;;;;;;;11.40;2.05;;;5.40;99.90;;;;;;6190462;23;20020;-89
2022/01/05 03:58:28;;;;;;;8.68;1.85;;;5.40;99.90;;;;;;6166803;23;20016;-90
2022/01/05 04:00:58;;;;;;;8.45;1.85;;;5.40;99.90;;;;;;6191315;23;20445;-91
2022/01/05 04:03:30;;;;;;;15.90;2.80;;;5.40;99.90;;;;;;6190886;23;20452;-90
2022/01/05 04:05:58;;;;;;;10.93;1.77;;;5.40;99.90;;;;;;6191585;23;20074;-90
2022/01/05 04:08:36;;;;;;;15.98;2.42;;;5.40;99.90;;;;;;6191328;23;20028;-90
2022/01/05 04:11:06;;;;;;;11.32;3.92;;;5.40;99.90;;;;;;6165836;23;20025;-90
2022/01/05 04:13:33;;;;;;;21.13;3.42;;;5.40;99.90;;;;;;6189636;23;20023;-89
2022/01/05 04:16:01;;;;;;;11.25;1.60;;;5.40;99.90;;;;;;6190070;23;20009;-91
2022/01/05 04:18:28;;;;;;;15.70;1.67;;;5.40;99.90;;;;;;6216493;23;20013;-90
2022/01/05 04:20:55;;;;;;;9.85;2.75;;;5.40;99.90;;;;;;6188623;23;20013;-90
2022/01/05 04:23:25;;;;;;;11.35;2.30;;;5.40;99.90;;;;;;6190247;23;20017;-91
2022/01/05 04:25:57;;;;;;;24.33;2.15;;;5.40;99.90;;;;;;6166587;23;20410;-90
2022/01/05 04:28:25;;;;;;;11.50;2.45;;;5.40;99.90;;;;;;6165276;23;20067;-90
2022/01/05 04:30:54;;;;;;;17.70;1.95;;;5.40;99.90;;;;;;6190888;23;20017;-90
2022/01/05 04:33:21;;;;;;;13.70;1.40;;;5.40;99.90;;;;;;6216645;23;20057;-91
2022/01/05 04:36:11;;;;;;;14.63;2.90;;;5.40;99.90;;;;;;6194902;23;20017;-92
2022/01/05 04:38:38;;;;;;;9.35;1.58;;;5.40;99.90;;;;;;6190245;23;20017;-90
2022/01/05 04:41:05;;;;;;;12.32;1.67;;;5.40;99.90;;;;;;6165491;23;20020;-90
2022/01/05 04:43:32;;;;;;;12.73;2.15;;;5.40;99.90;;;;;;6216414;23;20016;-91
2022/01/05 04:45:59;;;;;;;17.25;2.25;;;5.40;99.90;;;;;;6216389;23;20103;-91
2022/01/05 04:48:26;;;;;;;13.77;1.15;;;5.40;99.90;;;;;;6189552;23;20020;-91
2022/01/05 04:50:53;;;;;;;13.10;1.40;;;5.40;99.90;;;;;;6165473;23;20024;-91
2022/01/05 04:53:23;;;;;;;30.17;3.03;;;5.40;99.90;;;;;;6191279;23;20092;-90
2022/01/05 04:55:50;;;;;;;10.23;1.30;;;5.40;99.90;;;;;;6165655;23;20024;-90
2022/01/05 04:58:17;;;;;;;15.60;2.80;;;5.40;99.90;;;;;;6216619;23;20016;-91
2022/01/05 05:00:44;;;;;;;9.40;1.90;;;5.40;99.90;;;;;;6189905;23;20103;-90
2022/01/05 05:03:12;;;;;;;12.10;2.25;;;5.40;99.90;;;;;;6216725;23;20021;-91
2022/01/05 05:05:39;;;;;;;9.65;1.70;;;5.40;99.90;;;;;;6160629;23;20021;-90
2022/01/05 05:08:32;;;;;;;4.60;1.55;;;5.40;99.90;;;;;;6164965;23;20073;-91
2022/01/05 05:11:14;;;;;;;18.38;2.55;;;5.40;99.90;;;;;;6168523;23;20511;-90
2022/01/05 05:13:41;;;;;;;12.13;1.88;;;5.40;99.90;;;;;;6166882;23;20511;-91
2022/01/05 05:16:08;;;;;;;9.05;1.88;;;5.40;99.90;;;;;;6218794;23;20012;-89
2022/01/05 05:18:46;;;;;;;12.82;2.35;;;5.40;99.90;;;;;;6166936;23;20486;-90
2022/01/05 05:21:13;;;;;;;13.95;2.47;;;5.50;99.90;;;;;;6167896;23;20021;-91
2022/01/05 05:23:47;;;;;;;14.60;3.28;;;5.50;99.90;;;;;;6167562;23;20031;-93
2022/01/05 05:26:20;;;;;;;13.27;1.80;;;5.50;99.90;;;;;;6174977;23;20020;-89
2022/01/05 05:28:47;;;;;;;20.45;4.32;;;5.50;99.90;;;;;;6216775;23;20376;-90
2022/01/05 05:31:14;;;;;;;14.07;3.30;;;5.50;99.90;;;;;;6160791;23;20025;-90
2022/01/05 05:33:41;;;;;;;14.13;2.20;;;5.50;99.90;;;;;;6190913;23;20016;-90
2022/01/05 05:36:08;;;;;;;21.27;2.97;;;5.50;99.90;;;;;;6161195;23;20021;-90
2022/01/05 05:38:38;;;;;;;22.92;3.95;;;5.60;99.90;;;;;;6191230;23;20024;-90
2022/01/05 05:41:05;;;;;;;12.63;1.73;;;5.60;99.90;;;;;;6190819;23;20050;-90
2022/01/05 05:43:32;;;;;;;24.90;3.28;;;5.60;99.90;;;;;;6190386;23;20024;-90
2022/01/05 05:45:58;;;;;;;18.05;1.90;;;5.60;99.90;;;;;;6190348;23;20498;-90
2022/01/05 05:48:26;;;;;;;19.27;3.13;;;5.60;99.90;;;;;;6165910;23;20024;-90
2022/01/05 05:50:53;;;;;;;15.00;3.30;;;5.60;99.90;;;;;;6163582;23;20032;-91
2022/01/05 05:53:20;;;;;;;11.93;1.80;;;5.60;99.90;;;;;;6215447;23;20021;-90
2022/01/05 05:55:47;;;;;;;12.18;3.47;;;5.60;99.90;;;;;;6190696;23;20045;-90
2022/01/05 05:58:14;;;;;;;9.77;1.92;;;5.60;99.90;;;;;;6165330;23;20050;-89
2022/01/05 06:00:40;;;;;;;17.70;2.22;;;5.60;99.90;;;;;;6190682;23;20016;-90
2022/01/05 06:03:07;;;;;;;16.65;2.58;;;5.60;99.90;;;;;;6190215;23;20024;-90
2022/01/05 06:05:34;;;;;;;10.35;1.73;;;5.60;99.90;;;;;;6190535;23;20058;-90
2022/01/05 06:08:01;;;;;;;16.05;2.15;;;5.60;99.90;;;;;;6165448;23;20078;-90
2022/01/05 06:10:28;;;;;;;10.68;3.05;;;5.60;99.90;;;;;;6165776;23;20055;-90
2022/01/05 06:12:55;;;;;;;17.55;1.95;;;5.60;99.90;;;;;;6190334;23;20433;-90
2022/01/05 06:15:22;;;;;;;8.20;1.58;;;5.60;99.90;;;;;;6160553;23;20023;-90
2022/01/05 06:17:49;;;;;;;14.10;3.67;;;5.60;99.90;;;;;;6190271;23;20024;-90
2022/01/05 06:20:17;;;;;;;20.65;3.15;;;5.60;99.90;;;;;;6165647;23;20016;-90
2022/01/05 06:22:44;;;;;;;22.23;2.72;;;5.60;99.90;;;;;;6189798;23;20029;-90
2022/01/05 06:25:12;;;;;;;9.43;2.25;;;5.60;99.90;;;;;;6165396;23;20451;-90
2022/01/05 06:27:39;;;;;;;15.93;2.20;;;5.60;99.90;;;;;;6190436;23;20048;-90
2022/01/05 06:30:08;;;;;;;10.20;1.70;;;5.60;99.90;;;;;;6190611;23;20409;-90
2022/01/05 06:32:35;;;;;;;21.42;2.72;;;5.60;99.90;;;;;;6189845;23;20069;-90
2022/01/05 06:35:03;;;;;;;14.38;2.00;;;5.60;99.90;;;;;;6190033;23;20293;-90
2022/01/05 06:37:30;;;;;;;13.23;2.88;;;5.50;99.90;;;;;;6165189;23;20028;-90
2022/01/05 06:39:57;;;;;;;16.33;2.85;;;5.50;99.90;;;;;;6165274;23;20107;-90
2022/01/05 06:42:24;;;;;;;25.65;3.33;;;5.50;99.90;;;;;;6165618;23;20020;-90
2022/01/05 06:44:51;;;;;;;12.95;2.60;;;5.50;99.90;;;;;;6190367;23;20047;-89
2022/01/05 06:47:19;;;;;;;12.43;2.40;;;5.50;99.90;;;;;;6190050;23;20026;-90
2022/01/05 06:49:45;;;;;;;16.27;2.55;;;5.50;99.90;;;;;;6189884;23;20098;-91
2022/01/05 06:52:13;;;;;;;13.80;2.05;;;5.60;99.90;;;;;;6214700;23;20021;-90
2022/01/05 06:54:40;;;;;;;6.78;2.00;;;5.60;99.90;;;;;;6189965;23;20016;-91
2022/01/05 06:57:08;;;;;;;19.58;2.53;;;5.60;99.90;;;;;;6189892;23;20016;-90
2022/01/05 06:59:36;;;;;;;18.05;4.10;;;5.60;99.90;;;;;;6165147;23;20044;-90
2022/01/05 07:02:04;;;;;;;14.18;3.65;;;5.70;99.90;;;;;;6165110;23;20372;-90
2022/01/05 07:04:31;;;;;;;15.68;2.58;;;5.70;99.90;;;;;;6190083;23;20391;-90
2022/01/05 07:07:00;;;;;;;18.08;1.88;;;5.70;99.90;;;;;;6166485;23;20024;-92
2022/01/05 07:09:27;;;;;;;23.60;4.07;;;5.70;99.90;;;;;;6189450;23;20017;-90
2022/01/05 07:11:54;;;;;;;14.85;1.52;;;5.80;99.90;;;;;;6189660;23;20099;-90
2022/01/05 07:14:26;;;;;;;15.20;1.50;;;5.70;99.90;;;;;;6190450;23;20028;-90
2022/01/05 07:16:55;;;;;;;25.75;4.53;;;5.70;99.90;;;;;;6189717;23;20028;-90
2022/01/05 07:19:22;;;;;;;13.93;2.88;;;5.70;99.90;;;;;;6164960;23;20345;-90
2022/01/05 07:21:49;;;;;;;18.00;3.97;;;5.70;99.90;;;;;;6189858;23;20482;-90
2022/01/05 07:24:19;;;;;;;11.82;2.80;;;5.70;99.90;;;;;;6189628;23;20068;-90
2022/01/05 07:26:47;;;;;;;11.73;2.05;;;5.70;99.90;;;;;;6215941;23;20067;-90
2022/01/05 07:29:17;;;;;;;16.67;2.75;;;5.70;99.90;;;;;;6189303;23;20029;-91
2022/01/05 07:31:44;;;;;;;7.72;1.23;;;5.70;99.90;;;;;;6164774;23;20024;-90
2022/01/05 07:34:12;;;;;;;16.48;2.67;;;5.70;99.90;;;;;;6164522;23;20079;-90
2022/01/05 07:36:39;;;;;;;12.13;2.22;;;5.70;99.90;;;;;;6189634;23;20047;-91
2022/01/05 07:39:07;;;;;;;10.13;2.67;;;5.70;99.90;;;;;;6164439;23;20016;-91
2022/01/05 07:41:36;;;;;;;22.70;4.20;;;5.80;99.90;;;;;;6164795;23;20016;-91
2022/01/05 07:44:04;;;;;;;15.85;1.85;;;5.80;99.90;;;;;;6165331;23;20384;-90
2022/01/05 07:46:31;;;;;;;13.98;2.72;;;5.80;99.90;;;;;;6164763;23;20051;-91
2022/01/05 07:48:59;;;;;;;19.88;4.68;;;5.80;99.90;;;;;;6164640;23;20472;-90
2022/01/05 07:51:26;;;;;;;21.58;2.78;;;5.80;99.90;;;;;;6189369;23;20020;-90
2022/01/05 07:53:53;;;;;;;14.35;3.00;;;5.80;99.90;;;;;;6189644;23;20039;-90
2022/01/05 07:56:20;;;;;;;9.85;1.70;;;5.80;99.90;;;;;;6189894;23;20012;-90
2022/01/05 07:58:48;;;;;;;17.20;2.53;;;5.70;99.90;;;;;;6189394;23;20016;-90
2022/01/05 08:01:18;;;;;;;15.95;2.03;;;5.70;99.90;;;;;;6189478;23;20448;-90
2022/01/05 08:03:47;;;;;;;14.00;2.45;;;5.70;99.90;;;;;;6189841;23;20031;-90
2022/01/05 08:06:21;;;;;;;19.42;1.80;;;5.70;99.90;;;;;;6160519;23;20356;-91
2022/01/05 08:08:49;;;;;;;21.48;3.13;;;5.70;99.90;;;;;;6188122;23;20017;-91
2022/01/05 08:11:17;;;;;;;8.23;2.75;;;5.70;99.90;;;;;;6214612;23;20028;-91
2022/01/05 08:13:44;;;;;;;18.77;2.40;;;5.80;99.90;;;;;;6188749;23;20115;-91
2022/01/05 08:16:11;;;;;;;11.13;2.25;;;5.80;99.90;;;;;;6189132;23;20027;-90
2022/01/05 08:18:38;;;;;;;11.93;3.15;;;5.80;99.90;;;;;;6189372;23;20012;-91
2022/01/05 08:21:06;;;;;;;21.48;2.00;;;5.80;99.90;;;;;;6215738;23;20080;-91
2022/01/05 08:23:33;;;;;;;11.93;2.92;;;5.80;99.90;;;;;;6189253;23;20013;-91
2022/01/05 08:26:00;;;;;;;16.13;2.40;;;5.70;99.90;;;;;;6164559;23;20028;-91
2022/01/05 08:28:31;;;;;;;20.65;2.95;;;5.60;99.90;;;;;;6164900;23;20509;-91
2022/01/05 08:30:59;;;;;;;18.52;2.33;;;5.60;99.90;;;;;;6215731;23;20020;-90
2022/01/05 08:33:26;;;;;;;11.93;2.08;;;5.70;99.90;;;;;;6188994;23;20021;-90
2022/01/05 08:35:54;;;;;;;11.57;1.40;;;5.70;99.90;;;;;;6188741;23;20016;-91
2022/01/05 08:38:24;;;;;;;12.48;2.40;;;5.70;99.90;;;;;;6189787;23;20017;-91
2022/01/05 08:40:51;;;;;;;9.65;1.25;;;5.70;99.90;;;;;;6189080;23;20016;-91
2022/01/05 08:43:19;;;;;;;13.82;1.33;;;5.70;99.90;;;;;;6164493;23;20039;-91
2022/01/05 08:45:47;;;;;;;7.63;1.73;;;5.70;99.90;;;;;;6190830;23;20026;-90
2022/01/05 08:48:15;;;;;;;13.50;2.53;;;5.70;99.90;;;;;;6166154;23;20024;-89
2022/01/05 08:50:44;;;;;;;18.10;3.05;;;5.70;99.90;;;;;;6162013;23;20021;-90
2022/01/05 08:53:12;;;;;;;16.50;2.28;;;5.80;99.90;;;;;;6216399;23;20051;-90
2022/01/05 08:55:42;;;;;;;34.15;4.20;;;5.80;99.90;;;;;;6191291;23;20009;-91
2022/01/05 08:58:10;;;;;;;31.92;3.17;;;5.90;99.90;;;;;;6191050;23;20012;-90
2022/01/05 09:00:37;;;;;;;27.48;4.45;;;5.90;99.90;;;;;;6166479;23;20444;-90
2022/01/05 09:03:05;;;;;;;31.65;5.57;;;6.00;99.90;;;;;;6216324;23;20078;-90
2022/01/05 09:05:35;;;;;;;11.63;3.65;;;6.00;99.90;;;;;;6166536;23;20063;-91
2022/01/05 09:08:04;;;;;;;10.82;2.72;;;6.00;99.90;;;;;;6190811;23;20663;-90
2022/01/05 09:10:36;;;;;;;26.27;3.92;;;5.90;99.90;;;;;;6189912;23;20022;-91
2022/01/05 09:13:06;;;;;;;20.00;4.18;;;5.80;99.90;;;;;;6165773;23;20486;-90
2022/01/05 09:15:34;;;;;;;13.02;3.17;;;5.80;99.90;;;;;;6191556;23;20016;-91
2022/01/05 09:18:02;;;;;;;17.55;2.78;;;5.80;99.90;;;;;;6190881;23;20013;-91
2022/01/05 09:20:29;;;;;;;22.48;2.50;;;5.90;99.90;;;;;;6216052;23;20016;-90
2022/01/05 09:22:56;;;;;;;12.95;3.70;;;5.90;99.90;;;;;;6166364;23;20313;-90
2022/01/05 09:25:23;;;;;;;10.95;3.00;;;5.90;99.90;;;;;;6190868;23;20016;-90
2022/01/05 09:27:51;;;;;;;21.55;3.05;;;6.00;99.90;;;;;;6165708;23;20031;-90
2022/01/05 09:30:20;;;;;;;25.08;3.55;;;6.00;99.90;;;;;;6165949;23;20031;-90
2022/01/05 09:32:47;;;;;;;25.85;4.95;;;6.00;99.90;;;;;;6165770;23;20055;-92
2022/01/05 09:35:18;;;;;;;27.02;3.60;;;6.00;99.90;;;;;;6160926;23;20025;-91
2022/01/05 09:38:36;;;;;;;12.70;3.17;;;6.00;99.90;;;;;;6191293;23;20021;-92
2022/01/05 09:43:27;;;;;;;19.30;2.88;;;6.10;99.90;;;;;;6190740;23;20063;-92
2022/01/05 09:46:09;;;;;;;24.23;4.72;;;6.10;99.90;;;;;;6190762;23;20103;-92
2022/01/05 09:49:09;;;;;;;15.77;4.50;;;6.10;99.90;;;;;;6166705;23;20070;-91
2022/01/05 09:51:52;;;;;;;16.48;2.88;;;6.10;99.90;;;;;;6166054;23;20016;-92
2022/01/05 09:54:30;;;;;;;20.98;3.33;;;6.10;99.90;;;;;;6166127;23;20017;-92
2022/01/05 09:57:05;;;;;;;9.85;2.00;;;6.10;99.90;;;;;;6190632;23;20016;-91
2022/01/05 10:00:11;;;;;;;12.23;3.67;;;6.10;99.90;;;;;;6190512;23;20012;-92
2022/01/05 10:03:09;;;;;;;14.88;3.00;;;6.10;99.90;;;;;;6215719;23;20341;-92
2022/01/05 10:06:01;;;;;;;14.98;3.30;;;6.10;99.90;;;;;;6168508;23;20020;-92
2022/01/05 10:08:56;;;;;;;11.25;2.60;;;6.10;99.90;;;;;;6170217;23;20067;-92
2022/01/05 10:11:27;;;;;;;22.83;2.80;;;6.20;99.90;;;;;;6191231;23;20012;-92
2022/01/05 10:14:21;;;;;;;22.55;3.08;;;6.20;99.90;;;;;;6190741;23;20020;-92
2022/01/05 10:17:25;;;;;;;10.45;2.28;;;6.30;99.90;;;;;;6197873;23;20017;-92
2022/01/05 10:20:16;;;;;;;23.67;5.00;;;6.30;99.90;;;;;;6190027;23;20021;-92
2022/01/05 10:23:58;;;;;;;13.68;1.27;;;6.40;99.90;;;;;;6166143;23;20025;-92
2022/01/05 10:26:38;;;;;;;22.40;4.72;;;6.40;99.90;;;;;;6182652;23;20448;-92
2022/01/05 10:29:22;;;;;;;7.00;2.05;;;6.50;99.90;;;;;;6166250;23;20020;-91
2022/01/05 10:31:55;;;;;;;18.15;3.97;;;6.40;99.90;;;;;;6164217;23;20444;-92
2022/01/05 10:35:12;;;;;;;18.77;3.20;;;6.50;99.90;;;;;;6189646;23;20027;-93
2022/01/05 10:38:27;;;;;;;30.80;4.25;;;6.50;99.90;;;;;;6194603;23;20329;-93
2022/01/05 10:42:11;;;;;;;19.35;3.25;;;6.50;99.90;;;;;;6196834;23;20088;-92
2022/01/05 10:45:07;;;;;;;24.92;2.88;;;6.50;99.90;;;;;;6166399;23;20024;-92
2022/01/05 10:49:00;;;;;;;11.68;3.03;;;6.50;99.90;;;;;;6190293;23;20016;-92
2022/01/05 10:52:52;;;;;;;;;;;;;;;;;;;;;
2022/01/05 10:55:59;;;;;;;12.38;3.65;;;6.60;99.90;;;;;;6179495;23;20384;-92
2022/01/05 10:59:58;;;;;;;;;;;;;;;;;;;;;
2022/01/05 11:03:00;;;;;;;10.02;2.55;;;6.50;99.90;;;;;;6188863;23;20016;-92
2022/01/05 11:06:21;;;;;;;27.73;4.13;;;6.60;99.90;;;;;;6169709;23;20020;-92
2022/01/05 11:09:18;;;;;;;20.00;4.65;;;6.60;99.90;;;;;;6167625;23;20024;-91
2022/01/05 11:12:19;;;;;;;27.60;6.40;;;6.60;99.90;;;;;;6190187;23;20031;-92
2022/01/05 11:15:30;;;;;;;21.20;3.83;;;6.70;99.90;;;;;;6195809;23;20096;-91
2022/01/05 11:21:26;;;;;;;8.40;1.98;;;6.60;99.90;;;;;;6277124;22;20042;-91
2022/01/05 11:24:23;;;;;;;25.58;2.92;;;6.60;99.90;;;;;;6249310;22;20089;-91
2022/01/05 11:27:22;;;;;;;21.27;3.15;;;6.70;99.90;;;;;;6276278;22;20027;-90
2022/01/05 11:30:58;;;;;;;20.63;3.53;;;6.70;99.90;;;;;;6245790;23;20008;-90
2022/01/05 11:34:01;;;;;;;23.17;4.47;;;6.70;99.90;;;;;;6242003;22;20550;-90
2022/01/05 11:36:53;;;;;;;17.50;5.47;;;6.80;99.90;;;;;;6246058;23;20099;-91
2022/01/05 11:39:42;;;;;;;10.13;2.45;;;6.80;99.90;;;;;;6222582;23;20016;-90
2022/01/05 11:42:39;;;;;;;20.75;4.72;;;6.70;99.90;;;;;;6219920;23;20020;-91
2022/01/05 11:45:10;;;;;;;23.00;3.00;;;6.70;99.90;;;;;;6220257;23;20016;-90
2022/01/05 11:47:47;;;;;;;16.88;2.72;;;6.70;99.90;;;;;;6244807;23;20206;-91
2022/01/05 11:50:17;;;;;;;16.52;2.90;;;6.70;99.90;;;;;;6246410;23;20087;-90
2022/01/05 11:52:59;;;;;;;10.20;2.15;;;6.70;99.90;;;;;;6244959;23;20087;-90
2022/01/05 11:55:30;;;;;;;24.15;3.33;;;6.70;99.90;;;;;;6245491;23;20024;-91
2022/01/05 11:58:19;;;;;;;28.70;2.75;;;6.70;99.90;;;;;;6245396;23;20039;-90
2022/01/05 12:01:12;;;;;;;18.80;3.70;;;6.80;99.90;;;;;;6247989;23;20023;-91
2022/01/05 12:04:06;;;;;;;26.23;4.88;;;6.80;99.90;;;;;;6245004;22;20448;-91
2022/01/05 12:07:00;;;;;;;11.80;1.98;;;6.80;99.90;;;;;;6245440;23;20024;-91
2022/01/05 12:09:32;;;;;;;14.23;2.80;;;6.80;99.90;;;;;;6228380;22;20027;-90
2022/01/05 12:12:27;;;;;;;21.52;2.45;;;6.90;99.90;;;;;;6219993;23;20106;-91
2022/01/05 12:14:57;;;;;;;21.30;3.67;;;7.00;99.90;;;;;;6244956;23;20023;-90
2022/01/05 12:17:32;;;;;;;25.75;2.45;;;6.90;99.90;;;;;;6221869;23;20017;-91
2022/01/05 12:20:31;;;;;;;25.55;3.83;;;7.00;99.90;;;;;;6246122;23;20020;-91
2022/01/05 12:23:28;;;;;;;16.08;3.35;;;7.00;99.90;;;;;;6200503;23;20047;-90
2022/01/05 12:26:07;;;;;;;11.20;3.40;;;6.90;99.90;;;;;;6234527;23;20024;-90
2022/01/05 12:28:40;;;;;;;17.02;2.53;;;7.00;99.90;;;;;;6246627;23;20027;-90
2022/01/05 12:31:11;;;;;;;16.52;3.80;;;6.90;99.90;;;;;;6247483;23;20024;-91
2022/01/05 12:33:44;;;;;;;7.93;1.30;;;7.00;99.90;;;;;;6246786;23;20436;-91
2022/01/05 12:36:43;;;;;;;23.65;2.83;;;7.00;99.90;;;;;;6221435;23;20047;-92
2022/01/05 12:39:15;;;;;;;24.60;2.55;;;7.00;99.90;;;;;;6246872;23;20016;-92
2022/01/05 12:41:45;;;;;;;25.13;3.63;;;7.10;99.90;;;;;;6222370;23;20042;-92
2022/01/05 12:44:18;;;;;;;17.83;2.70;;;7.10;99.90;;;;;;6246698;23;20024;-92
2022/01/05 12:46:50;;;;;;;14.40;2.83;;;7.10;99.90;;;;;;6248606;22;20023;-92
2022/01/05 12:49:26;;;;;;;23.02;3.08;;;7.10;99.90;;;;;;6222503;23;20089;-93
2022/01/05 12:51:56;;;;;;;23.88;4.30;;;7.20;99.90;;;;;;6247190;23;20020;-92
2022/01/05 12:54:29;;;;;;;22.20;4.57;;;7.10;99.90;;;;;;6246854;23;20019;-90
2022/01/05 12:57:04;;;;;;;25.73;3.85;;;7.20;99.90;;;;;;6246648;23;20020;-92
2022/01/05 12:59:34;;;;;;;22.95;3.53;;;7.20;99.90;;;;;;6221214;23;20027;-92
2022/01/05 13:02:06;;;;;;;20.65;2.35;;;7.20;99.90;;;;;;6248554;22;20012;-92
2022/01/05 13:04:35;;;;;;;22.10;2.70;;;7.20;99.90;;;;;;6222127;23;20034;-92
2022/01/05 13:07:12;;;;;;;22.77;2.55;;;7.30;99.90;;;;;;6246582;23;20024;-92
2022/01/05 13:09:50;;;;;;;24.48;3.42;;;7.20;99.90;;;;;;6246325;23;20016;-91
2022/01/05 13:12:49;;;;;;;14.52;3.75;;;7.30;99.90;;;;;;6246483;23;20071;-90
2022/01/05 13:15:40;;;;;;;17.05;3.70;;;7.30;99.90;;;;;;6246243;23;20097;-92
2022/01/05 13:18:11;;;;;;;19.05;3.03;;;7.30;99.90;;;;;;6246451;23;20019;-92
2022/01/05 13:20:55;;;;;;;27.38;6.13;;;7.30;99.90;;;;;;6222095;23;20019;-92
2022/01/05 13:23:29;;;;;;;13.80;2.35;;;7.30;99.90;;;;;;6221644;23;20100;-92
2022/01/05 13:26:09;;;;;;;23.40;4.03;;;7.40;99.90;;;;;;6226726;23;20016;-91
2022/01/05 14:16:40;;;;;;;21.33;4.22;;;7.40;99.90;;;;;;6251454;22;20047;-93
2022/01/05 14:19:45;;;;;;;20.33;4.05;;;7.40;99.90;;;;;;6250406;22;20020;-89
2022/01/05 14:23:37;;;;;;;23.02;2.67;;;7.40;99.90;;;;;;6207455;22;20451;-93
2022/01/05 14:30:38;;;;;;;23.52;2.97;;;7.30;99.90;;;;;;6078269;23;20026;-92